Time;durP1;ratioP1;P1;durP2;ratioP2;P2;SDS_P1;SDS_P2;PMS_P1;PMS_P2;Temp;Humidity;BMP_temperature;BMP_pressure;BME280_temperature;BME280_humidity;BME280_pressure;Samples;Min_cycle;Max_cycle;Signal;HPM_P1;HPM_P2
2021/12/24 10:56:25;;;;;;;5.23;2.83;;;;;;;9.14;90.15;97856.16;5164213;27;20557;-85
2021/12/24 10:59:14;;;;;;;4.17;2.80;;;;;;;9.81;87.22;97877.59;5111391;27;38897;-85
2021/12/24 11:01:44;;;;;;;5.13;3.17;;;;;;;10.25;84.46;97851.31;5111935;27;40878;-84
2021/12/24 11:04:15;;;;;;;3.63;2.50;;;;;;;10.39;82.40;97821.94;5098613;28;41841;-86
2021/12/24 11:06:43;;;;;;;3.57;2.93;;;;;;;10.88;79.80;97860.44;5089780;28;41429;-86
2021/12/24 11:09:10;;;;;;;4.10;2.60;;;;;;;11.09;78.57;97853.44;5089015;28;42094;-84
2021/12/24 11:11:43;;;;;;;2.90;2.60;;;;;;;11.10;77.91;97833.94;5089081;28;41394;-87
2021/12/24 11:14:20;;;;;;;2.50;2.13;;;;;;;11.41;76.17;97865.88;5088909;28;41824;-85
2021/12/24 11:16:48;;;;;;;5.03;2.50;;;;;;;11.42;75.47;97875.50;5107471;27;40950;-86
2021/12/24 11:19:16;;;;;;;3.77;2.10;;;;;;;11.15;74.34;97842.34;5088535;28;40879;-88
2021/12/24 11:21:44;;;;;;;3.53;2.70;;;;;;;11.35;73.17;97879.66;5089530;28;41680;-89
2021/12/24 11:24:12;;;;;;;3.30;2.03;;;;;;;11.27;72.84;97860.84;5073115;28;42000;-84
2021/12/24 11:26:50;;;;;;;2.40;2.00;;;;;;;11.41;73.15;97868.53;5090208;28;42551;-86
2021/12/24 11:29:18;;;;;;;3.93;2.30;;;;;;;11.35;72.37;97863.75;5088110;28;40355;-85
2021/12/24 11:31:46;;;;;;;3.53;2.00;;;;;;;11.35;72.29;97866.38;5084390;28;40941;-86
2021/12/24 11:34:14;;;;;;;3.83;2.40;;;;;;;11.13;71.93;97833.66;5101066;27;42223;-86
2021/12/24 11:36:42;;;;;;;2.93;2.40;;;;;;;11.09;71.89;97845.50;5091895;28;42231;-88
2021/12/24 11:39:10;;;;;;;3.80;2.80;;;;;;;11.27;72.16;97860.84;5096433;27;38916;-87
2021/12/24 11:41:41;;;;;;;2.20;1.97;;;;;;;11.25;72.78;97854.84;5100015;27;41491;-85
2021/12/24 11:44:11;;;;;;;4.07;2.60;;;;;;;11.22;72.56;97855.09;5108078;27;42419;-86
2021/12/24 11:46:39;;;;;;;6.47;2.63;;;;;;;11.15;72.91;97847.63;5103782;27;41222;-89
2021/12/24 11:49:07;;;;;;;5.47;2.60;;;;;;;11.10;72.86;97843.69;5108656;27;38793;-85
2021/12/24 11:51:40;;;;;;;4.23;2.50;;;;;;;11.09;73.09;97844.66;5091523;28;40956;-85
2021/12/24 11:54:14;;;;;;;2.80;2.43;;;;;;;11.01;72.71;97845.25;5075236;28;41820;-88
2021/12/24 11:56:45;;;;;;;3.40;2.97;;;;;;;11.03;73.18;97858.38;5103666;27;42094;-84
2021/12/24 11:59:13;;;;;;;3.77;2.70;;;;;;;10.90;73.45;97831.19;5091318;27;38966;-85
2021/12/24 12:01:42;;;;;;;5.67;2.90;;;;;;;10.98;73.99;97845.50;5101548;28;41883;-86
2021/12/24 12:04:14;;;;;;;4.30;3.00;;;;;;;10.88;73.78;97825.19;5086727;28;42195;-88
2021/12/24 12:06:42;;;;;;;3.67;2.43;;;;;;;10.90;73.88;97832.03;5078576;28;41964;-87
2021/12/24 12:09:12;;;;;;;3.27;2.80;;;;;;;10.88;73.89;97818.06;5084234;28;38726;-87
2021/12/24 12:11:44;;;;;;;4.10;2.77;;;;;;;10.60;73.80;97776.22;5088727;28;42145;-86
2021/12/24 12:14:28;;;;;;;3.60;2.73;;;;;;;10.78;73.96;97806.53;5082101;28;42022;-86
2021/12/24 12:16:57;;;;;;;2.97;2.63;;;;;;;10.80;74.21;97810.72;5074776;28;41055;-88
2021/12/24 12:19:30;;;;;;;3.93;2.63;;;;;;;10.88;74.49;97833.94;5073076;28;39937;-87
2021/12/24 12:22:17;;;;;;;3.37;2.70;;;;;;;10.90;74.62;97836.47;5074728;28;41029;-88
2021/12/24 12:27:36;;;;;;;3.50;1.97;;;;;;;10.89;74.41;97829.50;5059409;28;41963;-87
2021/12/24 12:30:35;;;;;;;3.53;2.57;;;;;;;10.99;74.34;97844.56;5065392;28;39146;-84
2021/12/24 12:33:12;;;;;;;3.37;2.93;;;;;;;10.96;74.70;97847.44;5048707;28;41487;-85
2021/12/24 12:35:45;;;;;;;3.80;2.53;;;;;;;10.86;74.63;97825.31;5094801;28;42217;-86
2021/12/24 12:38:29;;;;;;;4.10;3.03;;;;;;;10.95;74.75;97840.47;5092216;28;41330;-83
2021/12/24 12:41:22;;;;;;;2.77;2.40;;;;;;;10.93;74.71;97847.69;5074551;28;39063;-87
2021/12/24 12:43:53;;;;;;;2.90;2.40;;;;;;;10.94;74.75;97845.88;5058883;28;40587;-85
2021/12/24 12:46:24;;;;;;;6.10;2.30;;;;;;;10.94;74.75;97835.28;5076264;28;41966;-89
2021/12/24 12:48:54;;;;;;;4.23;2.87;;;;;;;10.86;74.80;97814.72;5083140;28;42355;-86
2021/12/24 12:51:53;;;;;;;2.73;2.20;;;;;;;10.94;74.67;97816.72;5089433;28;39112;-85
2021/12/24 12:54:39;;;;;;;3.30;2.40;;;;;;;10.91;74.94;97809.88;5090263;28;42273;-83
2021/12/24 12:57:13;;;;;;;4.10;2.57;;;;;;;10.88;74.82;97812.75;5084712;28;42012;-87
2021/12/24 13:00:02;;;;;;;4.40;2.63;;;;;;;10.88;74.93;97818.06;5124952;27;41267;-87
2021/12/24 13:03:06;;;;;;;2.87;2.53;;;;;;;10.84;75.06;97815.78;5079911;28;39736;-88
2021/12/24 13:05:53;;;;;;;2.83;2.20;;;;;;;10.74;75.02;97794.50;5080086;28;41905;-88
2021/12/24 13:08:23;;;;;;;3.43;2.13;;;;;;;10.81;75.02;97801.00;5089200;28;42069;-86
2021/12/24 13:10:59;;;;;;;4.60;2.50;;;;;;;10.77;75.29;97799.53;5079572;28;40957;-85
2021/12/24 13:13:27;;;;;;;3.20;2.47;;;;;;;10.70;75.35;97793.06;5091784;28;39580;-88
2021/12/24 13:15:57;;;;;;;2.87;2.17;;;;;;;10.71;75.15;97790.28;5092627;28;40561;-89
2021/12/24 13:18:28;;;;;;;2.90;2.60;;;;;;;10.72;75.43;97796.44;5090668;28;41671;-86
2021/12/24 13:23:46;;;;;;;3.27;2.30;;;;;;;10.86;75.16;97809.41;5077245;28;39516;-87
2021/12/24 13:26:17;;;;;;;3.03;2.27;;;;;;;10.77;75.37;97810.13;5088644;28;41559;-89
2021/12/24 13:29:00;;;;;;;3.47;2.67;;;;;;;10.80;75.42;97815.19;5079949;28;42065;-91
2021/12/24 13:31:32;;;;;;;3.47;2.53;;;;;;;10.82;75.72;97812.44;5065902;28;41511;-93
2021/12/24 13:34:00;;;;;;;6.30;3.00;;;;;;;10.72;75.64;97796.44;5086446;28;39211;-93
2021/12/24 13:36:30;;;;;;;3.87;2.40;;;;;;;10.72;75.92;97799.09;5075103;28;41691;-85
2021/12/24 13:39:13;;;;;;;3.90;2.47;;;;;;;10.80;75.93;97810.72;5074759;28;42019;-88
2021/12/24 13:41:42;;;;;;;3.53;2.83;;;;;;;10.72;75.68;97794.63;5091567;28;42156;-86
2021/12/24 13:44:22;;;;;;;3.40;2.57;;;;;;;10.67;75.79;97795.94;5075027;28;38949;-85
2021/12/24 13:47:22;;;;;;;4.10;2.80;;;;;;;10.76;75.57;97811.09;5095320;28;41939;-85
2021/12/24 13:50:24;;;;;;;5.17;2.50;;;;;;;10.73;75.95;97817.50;5080855;28;41966;-83
